sensor_id;sensor_type;location;lat;lon;timestamp;temperature;humidity
15099;DHT22;33900;53.640;9.942;2023-02-17T00:01:28;10.90;93.60
15099;DHT22;33900;53.640;9.942;2023-02-17T00:04:15;10.90;93.70
15099;DHT22;33900;53.640;9.942;2023-02-17T00:06:41;10.90;93.60
15099;DHT22;33900;53.640;9.942;2023-02-17T00:09:12;10.90;93.70
15099;DHT22;33900;53.640;9.942;2023-02-17T00:11:38;10.90;93.90
15099;DHT22;33900;53.640;9.942;2023-02-17T00:14:10;10.90;93.80
15099;DHT22;33900;53.640;9.942;2023-02-17T00:16:49;10.90;93.90
15099;DHT22;33900;53.640;9.942;2023-02-17T00:19:16;10.90;93.80
15099;DHT22;33900;53.640;9.942;2023-02-17T00:21:58;10.90;93.80
15099;DHT22;33900;53.640;9.942;2023-02-17T00:24:26;10.90;94.00
15099;DHT22;33900;53.640;9.942;2023-02-17T00:26:54;10.90;94.10
15099;DHT22;33900;53.640;9.942;2023-02-17T00:29:20;10.90;94.20
15099;DHT22;33900;53.640;9.942;2023-02-17T00:31:47;10.90;94.10
15099;DHT22;33900;53.640;9.942;2023-02-17T00:34:18;10.90;94.10
15099;DHT22;33900;53.640;9.942;2023-02-17T00:36:48;10.90;93.90
15099;DHT22;33900;53.640;9.942;2023-02-17T00:39:29;10.90;93.90
15099;DHT22;33900;53.640;9.942;2023-02-17T00:41:58;10.90;93.90
15099;DHT22;33900;53.640;9.942;2023-02-17T00:44:30;11.00;93.90
15099;DHT22;33900;53.640;9.942;2023-02-17T00:46:59;10.90;93.90
15099;DHT22;33900;53.640;9.942;2023-02-17T00:52:31;11.00;93.80
15099;DHT22;33900;53.640;9.942;2023-02-17T00:55:00;11.00;93.70
15099;DHT22;33900;53.640;9.942;2023-02-17T00:57:27;11.00;93.70
15099;DHT22;33900;53.640;9.942;2023-02-17T00:59:57;11.00;93.70
15099;DHT22;33900;53.640;9.942;2023-02-17T01:02:23;11.00;93.90
15099;DHT22;33900;53.640;9.942;2023-02-17T01:04:52;11.00;93.90
15099;DHT22;33900;53.640;9.942;2023-02-17T01:07:24;11.00;94.00
15099;DHT22;33900;53.640;9.942;2023-02-17T01:09:53;11.00;93.90
15099;DHT22;33900;53.640;9.942;2023-02-17T01:12:19;11.00;94.00
15099;DHT22;33900;53.640;9.942;2023-02-17T01:14:47;11.00;94.00
15099;DHT22;33900;53.640;9.942;2023-02-17T01:17:17;11.00;94.30
15099;DHT22;33900;53.640;9.942;2023-02-17T01:19:47;11.00;94.20
15099;DHT22;33900;53.640;9.942;2023-02-17T01:22:24;11.00;94.10
15099;DHT22;33900;53.640;9.942;2023-02-17T01:24:50;11.00;94.30
15099;DHT22;33900;53.640;9.942;2023-02-17T01:27:20;11.00;94.30
15099;DHT22;33900;53.640;9.942;2023-02-17T01:29:46;11.00;94.30
15099;DHT22;33900;53.640;9.942;2023-02-17T01:32:28;11.00;94.30
15099;DHT22;33900;53.640;9.942;2023-02-17T01:35:09;11.00;94.40
15099;DHT22;33900;53.640;9.942;2023-02-17T01:37:47;11.00;94.30
15099;DHT22;33900;53.640;9.942;2023-02-17T01:42:46;11.10;94.20
15099;DHT22;33900;53.640;9.942;2023-02-17T01:47:49;11.10;94.20
15099;DHT22;33900;53.640;9.942;2023-02-17T01:50:17;11.00;94.10
15099;DHT22;33900;53.640;9.942;2023-02-17T01:52:52;11.10;94.20
15099;DHT22;33900;53.640;9.942;2023-02-17T01:55:19;11.10;94.20
15099;DHT22;33900;53.640;9.942;2023-02-17T01:57:49;11.10;94.20
15099;DHT22;33900;53.640;9.942;2023-02-17T02:00:28;11.10;94.30
15099;DHT22;33900;53.640;9.942;2023-02-17T02:02:59;11.10;94.30
15099;DHT22;33900;53.640;9.942;2023-02-17T02:05:29;11.10;94.40
15099;DHT22;33900;53.640;9.942;2023-02-17T02:07:58;11.10;94.70
15099;DHT22;33900;53.640;9.942;2023-02-17T02:10:32;11.10;94.60
15099;DHT22;33900;53.640;9.942;2023-02-17T02:12:58;11.10;94.70
15099;DHT22;33900;53.640;9.942;2023-02-17T02:15:32;11.10;94.60
15099;DHT22;33900;53.640;9.942;2023-02-17T02:18:04;11.10;94.70
15099;DHT22;33900;53.640;9.942;2023-02-17T02:21:21;11.10;94.60
15099;DHT22;33900;53.640;9.942;2023-02-17T02:26:07;11.10;94.70
15099;DHT22;33900;53.640;9.942;2023-02-17T02:33:40;11.20;94.50
15099;DHT22;33900;53.640;9.942;2023-02-17T02:36:10;11.20;94.50
15099;DHT22;33900;53.640;9.942;2023-02-17T02:38:44;11.20;94.50
15099;DHT22;33900;53.640;9.942;2023-02-17T02:41:33;11.20;94.50
15099;DHT22;33900;53.640;9.942;2023-02-17T02:44:03;11.20;94.50
15099;DHT22;33900;53.640;9.942;2023-02-17T02:46:29;11.20;94.70
15099;DHT22;33900;53.640;9.942;2023-02-17T02:48:56;11.20;94.70
15099;DHT22;33900;53.640;9.942;2023-02-17T03:02:17;11.20;94.80
15099;DHT22;33900;53.640;9.942;2023-02-17T03:04:56;11.20;94.70
15099;DHT22;33900;53.640;9.942;2023-02-17T03:09:57;11.30;94.60
15099;DHT22;33900;53.640;9.942;2023-02-17T03:12:27;11.30;94.60
15099;DHT22;33900;53.640;9.942;2023-02-17T03:15:02;11.30;94.40
15099;DHT22;33900;53.640;9.942;2023-02-17T03:17:31;11.30;94.50
15099;DHT22;33900;53.640;9.942;2023-02-17T03:19:59;11.40;94.50
15099;DHT22;33900;53.640;9.942;2023-02-17T03:22:35;11.40;94.80
15099;DHT22;33900;53.640;9.942;2023-02-17T03:25:05;11.30;94.70
15099;DHT22;33900;53.640;9.942;2023-02-17T03:27:31;11.40;94.60
15099;DHT22;33900;53.640;9.942;2023-02-17T03:30:00;11.40;94.70
15099;DHT22;33900;53.640;9.942;2023-02-17T03:32:48;11.40;94.50
15099;DHT22;33900;53.640;9.942;2023-02-17T03:35:17;11.40;94.60
15099;DHT22;33900;53.640;9.942;2023-02-17T03:37:47;11.40;94.70
15099;DHT22;33900;53.640;9.942;2023-02-17T03:40:13;11.40;94.60
15099;DHT22;33900;53.640;9.942;2023-02-17T03:42:42;11.40;94.60
15099;DHT22;33900;53.640;9.942;2023-02-17T03:45:11;11.40;94.70
15099;DHT22;33900;53.640;9.942;2023-02-17T03:47:40;11.50;94.70
15099;DHT22;33900;53.640;9.942;2023-02-17T03:50:12;11.50;94.80
15099;DHT22;33900;53.640;9.942;2023-02-17T03:52:41;11.50;94.70
15099;DHT22;33900;53.640;9.942;2023-02-17T03:55:17;11.50;94.70
15099;DHT22;33900;53.640;9.942;2023-02-17T03:57:43;11.50;94.80
15099;DHT22;33900;53.640;9.942;2023-02-17T04:00:16;11.50;94.60
15099;DHT22;33900;53.640;9.942;2023-02-17T04:02:42;11.50;94.70
15099;DHT22;33900;53.640;9.942;2023-02-17T04:05:11;11.50;94.80
15099;DHT22;33900;53.640;9.942;2023-02-17T04:07:50;11.50;94.80
15099;DHT22;33900;53.640;9.942;2023-02-17T04:10:16;11.50;94.80
15099;DHT22;33900;53.640;9.942;2023-02-17T04:12:42;11.50;94.80
15099;DHT22;33900;53.640;9.942;2023-02-17T04:15:08;11.60;94.90
15099;DHT22;33900;53.640;9.942;2023-02-17T04:17:35;11.50;94.80
15099;DHT22;33900;53.640;9.942;2023-02-17T04:20:11;11.50;94.80
15099;DHT22;33900;53.640;9.942;2023-02-17T04:22:47;11.50;94.80
15099;DHT22;33900;53.640;9.942;2023-02-17T04:25:13;11.50;94.80
15099;DHT22;33900;53.640;9.942;2023-02-17T04:27:45;11.50;94.90
15099;DHT22;33900;53.640;9.942;2023-02-17T04:30:19;11.60;94.90
15099;DHT22;33900;53.640;9.942;2023-02-17T04:32:47;11.60;94.90
15099;DHT22;33900;53.640;9.942;2023-02-17T04:35:14;11.60;94.90
15099;DHT22;33900;53.640;9.942;2023-02-17T04:37:39;11.60;95.00
15099;DHT22;33900;53.640;9.942;2023-02-17T04:40:09;11.60;95.00
15099;DHT22;33900;53.640;9.942;2023-02-17T04:42:43;11.60;94.90
15099;DHT22;33900;53.640;9.942;2023-02-17T04:45:10;11.60;94.80
15099;DHT22;33900;53.640;9.942;2023-02-17T04:47:40;11.60;94.90
15099;DHT22;33900;53.640;9.942;2023-02-17T04:50:09;11.60;94.80
15099;DHT22;33900;53.640;9.942;2023-02-17T04:52:35;11.70;94.80
15099;DHT22;33900;53.640;9.942;2023-02-17T04:55:02;11.70;94.80
15099;DHT22;33900;53.640;9.942;2023-02-17T04:57:40;11.70;94.80
15099;DHT22;33900;53.640;9.942;2023-02-17T05:00:15;11.70;94.80
15099;DHT22;33900;53.640;9.942;2023-02-17T05:02:41;11.70;94.80
15099;DHT22;33900;53.640;9.942;2023-02-17T05:05:08;11.70;94.80
15099;DHT22;33900;53.640;9.942;2023-02-17T05:07:50;11.70;94.90
15099;DHT22;33900;53.640;9.942;2023-02-17T05:10:19;11.70;94.80
15099;DHT22;33900;53.640;9.942;2023-02-17T05:12:45;11.70;94.70
15099;DHT22;33900;53.640;9.942;2023-02-17T05:15:13;11.70;94.90
15099;DHT22;33900;53.640;9.942;2023-02-17T05:17:47;11.70;94.70
15099;DHT22;33900;53.640;9.942;2023-02-17T05:20:27;11.70;94.80
15099;DHT22;33900;53.640;9.942;2023-02-17T05:22:58;11.70;94.70
15099;DHT22;33900;53.640;9.942;2023-02-17T05:25:27;11.70;94.70
15099;DHT22;33900;53.640;9.942;2023-02-17T05:27:53;11.70;94.60
15099;DHT22;33900;53.640;9.942;2023-02-17T05:30:27;11.80;94.70
15099;DHT22;33900;53.640;9.942;2023-02-17T05:32:54;11.80;94.70
15099;DHT22;33900;53.640;9.942;2023-02-17T05:35:27;11.80;94.70
15099;DHT22;33900;53.640;9.942;2023-02-17T05:38:21;11.80;94.60
15099;DHT22;33900;53.640;9.942;2023-02-17T05:40:56;11.80;94.70
15099;DHT22;33900;53.640;9.942;2023-02-17T05:43:26;11.80;94.70
15099;DHT22;33900;53.640;9.942;2023-02-17T05:45:52;11.80;94.70
15099;DHT22;33900;53.640;9.942;2023-02-17T05:48:18;11.80;94.70
15099;DHT22;33900;53.640;9.942;2023-02-17T05:50:44;11.80;94.60
15099;DHT22;33900;53.640;9.942;2023-02-17T05:53:10;11.80;94.60
15099;DHT22;33900;53.640;9.942;2023-02-17T05:55:39;11.80;94.80
15099;DHT22;33900;53.640;9.942;2023-02-17T05:58:06;11.80;94.80
15099;DHT22;33900;53.640;9.942;2023-02-17T06:00:44;11.80;94.60
15099;DHT22;33900;53.640;9.942;2023-02-17T06:03:11;11.80;94.60
15099;DHT22;33900;53.640;9.942;2023-02-17T06:05:41;11.80;94.60
15099;DHT22;33900;53.640;9.942;2023-02-17T06:08:07;11.80;94.60
15099;DHT22;33900;53.640;9.942;2023-02-17T06:13:12;11.80;94.60
15099;DHT22;33900;53.640;9.942;2023-02-17T06:15:41;11.90;94.60
15099;DHT22;33900;53.640;9.942;2023-02-17T06:18:11;11.90;94.60
15099;DHT22;33900;53.640;9.942;2023-02-17T06:20:37;11.90;94.60
15099;DHT22;33900;53.640;9.942;2023-02-17T06:23:11;11.90;94.50
15099;DHT22;33900;53.640;9.942;2023-02-17T06:25:49;11.90;94.50
15099;DHT22;33900;53.640;9.942;2023-02-17T06:28:15;11.90;94.50
15099;DHT22;33900;53.640;9.942;2023-02-17T06:30:44;11.90;94.50
15099;DHT22;33900;53.640;9.942;2023-02-17T06:33:10;11.90;94.50
15099;DHT22;33900;53.640;9.942;2023-02-17T06:35:36;11.90;94.40
15099;DHT22;33900;53.640;9.942;2023-02-17T06:38:03;11.80;94.40
15099;DHT22;33900;53.640;9.942;2023-02-17T06:40:33;11.90;94.80
15099;DHT22;33900;53.640;9.942;2023-02-17T06:43:02;11.90;94.40
15099;DHT22;33900;53.640;9.942;2023-02-17T06:45:27;11.90;94.70
15099;DHT22;33900;53.640;9.942;2023-02-17T06:47:54;11.90;94.80
15099;DHT22;33900;53.640;9.942;2023-02-17T06:50:34;11.80;94.80
15099;DHT22;33900;53.640;9.942;2023-02-17T06:53:05;11.80;94.90
15099;DHT22;33900;53.640;9.942;2023-02-17T06:56:10;11.80;94.90
15099;DHT22;33900;53.640;9.942;2023-02-17T06:59:10;11.80;95.00
15099;DHT22;33900;53.640;9.942;2023-02-17T07:01:42;11.80;95.00
15099;DHT22;33900;53.640;9.942;2023-02-17T07:04:09;11.80;94.90
15099;DHT22;33900;53.640;9.942;2023-02-17T07:06:35;11.80;94.90
15099;DHT22;33900;53.640;9.942;2023-02-17T07:15:28;11.80;94.90
15099;DHT22;33900;53.640;9.942;2023-02-17T07:17:54;11.80;94.90
15099;DHT22;33900;53.640;9.942;2023-02-17T07:20:20;11.80;94.90
15099;DHT22;33900;53.640;9.942;2023-02-17T07:22:47;11.90;94.90
15099;DHT22;33900;53.640;9.942;2023-02-17T07:25:13;11.80;94.90
15099;DHT22;33900;53.640;9.942;2023-02-17T07:27:39;11.80;95.10
15099;DHT22;33900;53.640;9.942;2023-02-17T07:30:06;11.80;95.20
15099;DHT22;33900;53.640;9.942;2023-02-17T07:32:32;11.80;95.30
15099;DHT22;33900;53.640;9.942;2023-02-17T07:34:58;11.80;95.30
15099;DHT22;33900;53.640;9.942;2023-02-17T07:37:24;11.80;95.40
15099;DHT22;33900;53.640;9.942;2023-02-17T07:39:50;11.80;95.40
15099;DHT22;33900;53.640;9.942;2023-02-17T07:42:17;11.80;95.40
15099;DHT22;33900;53.640;9.942;2023-02-17T07:44:46;11.80;95.30
15099;DHT22;33900;53.640;9.942;2023-02-17T07:47:12;11.80;95.30
15099;DHT22;33900;53.640;9.942;2023-02-17T07:49:38;11.80;95.30
15099;DHT22;33900;53.640;9.942;2023-02-17T07:52:04;11.90;95.40
15099;DHT22;33900;53.640;9.942;2023-02-17T07:54:30;11.80;95.60
15099;DHT22;33900;53.640;9.942;2023-02-17T07:56:59;11.80;95.50
15099;DHT22;33900;53.640;9.942;2023-02-17T07:59:26;11.80;95.50
15099;DHT22;33900;53.640;9.942;2023-02-17T08:01:55;11.90;95.50
15099;DHT22;33900;53.640;9.942;2023-02-17T08:04:23;11.90;95.40
15099;DHT22;33900;53.640;9.942;2023-02-17T08:06:52;11.90;95.50
15099;DHT22;33900;53.640;9.942;2023-02-17T08:09:27;11.80;95.60
15099;DHT22;33900;53.640;9.942;2023-02-17T08:12:15;11.80;95.50
15099;DHT22;33900;53.640;9.942;2023-02-17T08:15:18;11.80;95.90
15099;DHT22;33900;53.640;9.942;2023-02-17T08:17:47;11.80;96.10
15099;DHT22;33900;53.640;9.942;2023-02-17T08:20:15;11.80;96.10
15099;DHT22;33900;53.640;9.942;2023-02-17T08:22:42;11.80;95.80
15099;DHT22;33900;53.640;9.942;2023-02-17T08:25:08;11.90;95.90
15099;DHT22;33900;53.640;9.942;2023-02-17T08:27:35;11.80;95.80
15099;DHT22;33900;53.640;9.942;2023-02-17T08:30:01;11.90;95.70
15099;DHT22;33900;53.640;9.942;2023-02-17T08:32:28;11.90;95.70
15099;DHT22;33900;53.640;9.942;2023-02-17T08:35:04;11.90;95.70
15099;DHT22;33900;53.640;9.942;2023-02-17T08:37:36;11.90;95.70
15099;DHT22;33900;53.640;9.942;2023-02-17T08:40:02;11.90;95.60
15099;DHT22;33900;53.640;9.942;2023-02-17T08:42:31;11.90;95.60
15099;DHT22;33900;53.640;9.942;2023-02-17T08:44:57;11.90;95.70
15099;DHT22;33900;53.640;9.942;2023-02-17T08:47:23;11.90;95.60
15099;DHT22;33900;53.640;9.942;2023-02-17T08:49:52;11.90;95.60
15099;DHT22;33900;53.640;9.942;2023-02-17T08:52:19;11.90;95.70
15099;DHT22;33900;53.640;9.942;2023-02-17T08:54:45;11.90;95.70
15099;DHT22;33900;53.640;9.942;2023-02-17T08:57:13;11.90;95.60
15099;DHT22;33900;53.640;9.942;2023-02-17T08:59:39;11.90;95.70
15099;DHT22;33900;53.640;9.942;2023-02-17T09:02:05;11.90;95.90
15099;DHT22;33900;53.640;9.942;2023-02-17T09:04:32;11.90;95.80
15099;DHT22;33900;53.640;9.942;2023-02-17T09:07:01;11.90;95.80
15099;DHT22;33900;53.640;9.942;2023-02-17T09:09:27;11.90;95.80
15099;DHT22;33900;53.640;9.942;2023-02-17T09:11:54;11.90;95.70
15099;DHT22;33900;53.640;9.942;2023-02-17T09:14:21;11.90;95.80
15099;DHT22;33900;53.640;9.942;2023-02-17T09:16:50;11.90;95.70
15099;DHT22;33900;53.640;9.942;2023-02-17T09:19:17;11.90;95.70
15099;DHT22;33900;53.640;9.942;2023-02-17T09:21:43;11.90;96.00
15099;DHT22;33900;53.640;9.942;2023-02-17T09:24:10;11.90;95.90
15099;DHT22;33900;53.640;9.942;2023-02-17T09:26:37;11.90;95.90
15099;DHT22;33900;53.640;9.942;2023-02-17T09:29:03;11.90;95.90
15099;DHT22;33900;53.640;9.942;2023-02-17T09:31:30;11.90;95.90
15099;DHT22;33900;53.640;9.942;2023-02-17T09:34:03;11.90;96.00
15099;DHT22;33900;53.640;9.942;2023-02-17T09:36:38;11.90;95.90
15099;DHT22;33900;53.640;9.942;2023-02-17T09:39:29;11.90;96.10
15099;DHT22;33900;53.640;9.942;2023-02-17T09:41:55;11.90;96.10
15099;DHT22;33900;53.640;9.942;2023-02-17T09:44:23;11.90;96.30
15099;DHT22;33900;53.640;9.942;2023-02-17T09:47:04;11.90;96.30
15099;DHT22;33900;53.640;9.942;2023-02-17T09:52:30;11.90;96.10
15099;DHT22;33900;53.640;9.942;2023-02-17T09:57:26;11.90;96.00
15099;DHT22;33900;53.640;9.942;2023-02-17T10:00:11;12.00;96.10
15099;DHT22;33900;53.640;9.942;2023-02-17T10:02:58;11.90;96.00
15099;DHT22;33900;53.640;9.942;2023-02-17T10:05:29;12.00;96.00
15099;DHT22;33900;53.640;9.942;2023-02-17T10:08:04;12.00;96.00
15099;DHT22;33900;53.640;9.942;2023-02-17T10:10:34;12.00;96.00
15099;DHT22;33900;53.640;9.942;2023-02-17T10:13:03;12.00;96.10
15099;DHT22;33900;53.640;9.942;2023-02-17T10:15:34;12.00;96.10
15099;DHT22;33900;53.640;9.942;2023-02-17T10:18:12;12.00;96.20
15099;DHT22;33900;53.640;9.942;2023-02-17T10:20:44;12.00;96.40
15099;DHT22;33900;53.640;9.942;2023-02-17T10:23:14;12.00;96.30
15099;DHT22;33900;53.640;9.942;2023-02-17T10:30:54;12.00;96.90
15099;DHT22;33900;53.640;9.942;2023-02-17T10:33:36;12.00;96.80
15099;DHT22;33900;53.640;9.942;2023-02-17T10:36:10;12.00;96.70
15099;DHT22;33900;53.640;9.942;2023-02-17T10:38:42;12.00;96.70
15099;DHT22;33900;53.640;9.942;2023-02-17T10:41:13;12.00;96.80
15099;DHT22;33900;53.640;9.942;2023-02-17T10:43:40;12.00;96.80
15099;DHT22;33900;53.640;9.942;2023-02-17T10:46:07;12.00;96.70
15099;DHT22;33900;53.640;9.942;2023-02-17T10:48:41;12.00;96.70
15099;DHT22;33900;53.640;9.942;2023-02-17T10:51:10;12.10;96.60
15099;DHT22;33900;53.640;9.942;2023-02-17T10:53:38;12.10;96.50
15099;DHT22;33900;53.640;9.942;2023-02-17T10:58:37;12.10;96.50
15099;DHT22;33900;53.640;9.942;2023-02-17T11:01:08;12.10;96.40
15099;DHT22;33900;53.640;9.942;2023-02-17T11:03:34;12.10;96.40
15099;DHT22;33900;53.640;9.942;2023-02-17T11:06:15;12.10;96.50
15099;DHT22;33900;53.640;9.942;2023-02-17T11:08:48;12.20;96.50
15099;DHT22;33900;53.640;9.942;2023-02-17T11:11:27;12.20;96.40
15099;DHT22;33900;53.640;9.942;2023-02-17T11:16:56;12.20;96.40
15099;DHT22;33900;53.640;9.942;2023-02-17T11:21:52;12.30;96.40
15099;DHT22;33900;53.640;9.942;2023-02-17T11:24:19;12.30;96.40
15099;DHT22;33900;53.640;9.942;2023-02-17T11:27:00;12.20;96.30
15099;DHT22;33900;53.640;9.942;2023-02-17T11:29:27;12.30;96.30
15099;DHT22;33900;53.640;9.942;2023-02-17T11:31:55;12.30;96.30
15099;DHT22;33900;53.640;9.942;2023-02-17T11:34:23;12.30;96.50
15099;DHT22;33900;53.640;9.942;2023-02-17T11:39:28;12.30;96.50
15099;DHT22;33900;53.640;9.942;2023-02-17T11:41:54;12.30;96.40
15099;DHT22;33900;53.640;9.942;2023-02-17T11:44:24;12.30;96.30
15099;DHT22;33900;53.640;9.942;2023-02-17T11:46:58;12.30;96.50
15099;DHT22;33900;53.640;9.942;2023-02-17T11:54:45;12.30;96.70
15099;DHT22;33900;53.640;9.942;2023-02-17T12:05:24;12.30;96.90
15099;DHT22;33900;53.640;9.942;2023-02-17T12:07:57;12.30;97.20
15099;DHT22;33900;53.640;9.942;2023-02-17T12:10:41;12.30;97.20
15099;DHT22;33900;53.640;9.942;2023-02-17T12:18:17;12.30;97.20
15099;DHT22;33900;53.640;9.942;2023-02-17T12:20:55;12.40;97.20
15099;DHT22;33900;53.640;9.942;2023-02-17T12:36:09;12.40;97.30
15099;DHT22;33900;53.640;9.942;2023-02-17T12:38:38;12.40;97.30
15099;DHT22;33900;53.640;9.942;2023-02-17T12:43:37;12.50;97.30
15099;DHT22;33900;53.640;9.942;2023-02-17T12:46:11;12.50;97.30
15099;DHT22;33900;53.640;9.942;2023-02-17T12:48:43;12.50;97.50
15099;DHT22;33900;53.640;9.942;2023-02-17T12:51:14;12.50;97.50
15099;DHT22;33900;53.640;9.942;2023-02-17T12:53:47;12.60;97.50
15099;DHT22;33900;53.640;9.942;2023-02-17T12:59:04;12.50;97.30
15099;DHT22;33900;53.640;9.942;2023-02-17T13:01:34;12.50;97.30
15099;DHT22;33900;53.640;9.942;2023-02-17T13:04:02;12.50;97.30
15099;DHT22;33900;53.640;9.942;2023-02-17T13:06:32;12.50;97.20
15099;DHT22;33900;53.640;9.942;2023-02-17T13:11:45;12.60;97.30
15099;DHT22;33900;53.640;9.942;2023-02-17T13:14:57;12.60;97.20
15099;DHT22;33900;53.640;9.942;2023-02-17T13:16:57;12.60;97.20
15099;DHT22;33900;53.640;9.942;2023-02-17T13:19:26;12.60;97.10
15099;DHT22;33900;53.640;9.942;2023-02-17T13:21:53;12.60;97.30
15099;DHT22;33900;53.640;9.942;2023-02-17T13:24:30;12.50;97.20
15099;DHT22;33900;53.640;9.942;2023-02-17T13:26:56;12.60;97.20
15099;DHT22;33900;53.640;9.942;2023-02-17T13:31:54;12.50;97.30
15099;DHT22;33900;53.640;9.942;2023-02-17T13:34:40;12.60;97.40
15099;DHT22;33900;53.640;9.942;2023-02-17T13:39:39;12.60;97.40
15099;DHT22;33900;53.640;9.942;2023-02-17T13:42:22;12.60;97.40
15099;DHT22;33900;53.640;9.942;2023-02-17T13:44:50;12.60;97.40
15099;DHT22;33900;53.640;9.942;2023-02-17T13:47:18;12.60;97.50
15099;DHT22;33900;53.640;9.942;2023-02-17T13:49:52;12.60;97.40
15099;DHT22;33900;53.640;9.942;2023-02-17T13:52:21;12.60;97.40
15099;DHT22;33900;53.640;9.942;2023-02-17T13:54:51;12.60;97.30
15099;DHT22;33900;53.640;9.942;2023-02-17T13:57:21;12.60;97.30
15099;DHT22;33900;53.640;9.942;2023-02-17T13:59:46;12.60;97.30
15099;DHT22;33900;53.640;9.942;2023-02-17T14:02:18;12.70;97.30
15099;DHT22;33900;53.640;9.942;2023-02-17T14:04:44;12.70;97.40
15099;DHT22;33900;53.640;9.942;2023-02-17T14:07:10;12.70;97.40
15099;DHT22;33900;53.640;9.942;2023-02-17T14:09:36;12.60;97.40
15099;DHT22;33900;53.640;9.942;2023-02-17T14:12:03;12.70;97.40
15099;DHT22;33900;53.640;9.942;2023-02-17T14:14:32;12.60;97.40
15099;DHT22;33900;53.640;9.942;2023-02-17T14:16:59;12.60;97.40
15099;DHT22;33900;53.640;9.942;2023-02-17T14:19:26;12.60;97.40
15099;DHT22;33900;53.640;9.942;2023-02-17T14:26:50;12.60;97.30
15099;DHT22;33900;53.640;9.942;2023-02-17T14:29:19;12.60;97.20
15099;DHT22;33900;53.640;9.942;2023-02-17T14:31:46;12.60;97.10
15099;DHT22;33900;53.640;9.942;2023-02-17T14:34:28;12.60;96.60
15099;DHT22;33900;53.640;9.942;2023-02-17T14:36:54;12.60;96.50
15099;DHT22;33900;53.640;9.942;2023-02-17T14:39:31;12.50;96.20
15099;DHT22;33900;53.640;9.942;2023-02-17T14:41:57;12.50;96.10
15099;DHT22;33900;53.640;9.942;2023-02-17T14:44:23;12.50;95.80
15099;DHT22;33900;53.640;9.942;2023-02-17T14:46:48;12.50;95.90
15099;DHT22;33900;53.640;9.942;2023-02-17T14:49:14;12.50;95.90
15099;DHT22;33900;53.640;9.942;2023-02-17T14:51:40;12.40;95.80
15099;DHT22;33900;53.640;9.942;2023-02-17T14:54:10;12.40;95.50
15099;DHT22;33900;53.640;9.942;2023-02-17T14:56:37;12.40;95.40
15099;DHT22;33900;53.640;9.942;2023-02-17T14:59:05;12.40;95.20
15099;DHT22;33900;53.640;9.942;2023-02-17T15:01:30;12.30;95.10
15099;DHT22;33900;53.640;9.942;2023-02-17T15:03:56;12.30;95.20
15099;DHT22;33900;53.640;9.942;2023-02-17T15:06:23;12.30;95.20
15099;DHT22;33900;53.640;9.942;2023-02-17T15:08:51;12.30;95.30
15099;DHT22;33900;53.640;9.942;2023-02-17T15:11:26;12.30;95.00
15099;DHT22;33900;53.640;9.942;2023-02-17T15:13:53;12.20;94.60
15099;DHT22;33900;53.640;9.942;2023-02-17T15:16:19;12.20;94.70
15099;DHT22;33900;53.640;9.942;2023-02-17T15:18:45;12.20;94.70
15099;DHT22;33900;53.640;9.942;2023-02-17T15:21:13;12.20;94.60
15099;DHT22;33900;53.640;9.942;2023-02-17T15:23:40;12.10;94.60
15099;DHT22;33900;53.640;9.942;2023-02-17T15:26:07;12.10;94.40
15099;DHT22;33900;53.640;9.942;2023-02-17T15:28:33;12.10;94.30
15099;DHT22;33900;53.640;9.942;2023-02-17T15:30:59;12.10;94.00
15099;DHT22;33900;53.640;9.942;2023-02-17T15:33:25;12.00;93.90
15099;DHT22;33900;53.640;9.942;2023-02-17T15:35:51;12.00;93.90
15099;DHT22;33900;53.640;9.942;2023-02-17T15:38:20;12.00;93.80
15099;DHT22;33900;53.640;9.942;2023-02-17T15:40:46;12.00;93.90
15099;DHT22;33900;53.640;9.942;2023-02-17T15:43:12;11.90;94.00
15099;DHT22;33900;53.640;9.942;2023-02-17T15:45:38;11.80;94.00
15099;DHT22;33900;53.640;9.942;2023-02-17T15:48:12;11.90;93.80
15099;DHT22;33900;53.640;9.942;2023-02-17T15:50:41;11.80;93.80
15099;DHT22;33900;53.640;9.942;2023-02-17T15:53:10;11.80;93.50
15099;DHT22;33900;53.640;9.942;2023-02-17T15:55:35;11.80;93.70
15099;DHT22;33900;53.640;9.942;2023-02-17T15:58:02;11.70;93.40
15099;DHT22;33900;53.640;9.942;2023-02-17T16:00:32;11.70;93.10
15099;DHT22;33900;53.640;9.942;2023-02-17T16:02:58;11.70;93.00
15099;DHT22;33900;53.640;9.942;2023-02-17T16:05:25;11.60;92.50
15099;DHT22;33900;53.640;9.942;2023-02-17T16:07:52;11.60;92.70
15099;DHT22;33900;53.640;9.942;2023-02-17T16:10:19;11.60;92.80
15099;DHT22;33900;53.640;9.942;2023-02-17T16:12:45;11.50;92.80
15099;DHT22;33900;53.640;9.942;2023-02-17T16:15:13;11.50;92.90
15099;DHT22;33900;53.640;9.942;2023-02-17T16:17:40;11.50;93.00
15099;DHT22;33900;53.640;9.942;2023-02-17T16:20:12;11.40;92.40
15099;DHT22;33900;53.640;9.942;2023-02-17T16:22:38;11.40;92.20
15099;DHT22;33900;53.640;9.942;2023-02-17T16:25:04;11.40;92.10
15099;DHT22;33900;53.640;9.942;2023-02-17T16:27:30;11.30;92.10
15099;DHT22;33900;53.640;9.942;2023-02-17T16:29:55;11.30;92.10
15099;DHT22;33900;53.640;9.942;2023-02-17T16:32:21;11.30;92.30
15099;DHT22;33900;53.640;9.942;2023-02-17T16:34:47;11.20;92.20
15099;DHT22;33900;53.640;9.942;2023-02-17T16:37:13;11.20;91.80
15099;DHT22;33900;53.640;9.942;2023-02-17T16:39:40;11.20;91.60
15099;DHT22;33900;53.640;9.942;2023-02-17T16:42:08;11.10;91.70
15099;DHT22;33900;53.640;9.942;2023-02-17T16:44:33;11.10;91.80
15099;DHT22;33900;53.640;9.942;2023-02-17T16:46:59;11.10;92.10
15099;DHT22;33900;53.640;9.942;2023-02-17T16:49:28;11.10;91.90
15099;DHT22;33900;53.640;9.942;2023-02-17T16:52:02;11.00;91.60
15099;DHT22;33900;53.640;9.942;2023-02-17T16:54:28;11.00;91.20
15099;DHT22;33900;53.640;9.942;2023-02-17T16:56:54;11.00;91.10
15099;DHT22;33900;53.640;9.942;2023-02-17T16:59:20;11.00;90.90
15099;DHT22;33900;53.640;9.942;2023-02-17T17:01:47;10.90;91.10
15099;DHT22;33900;53.640;9.942;2023-02-17T17:04:12;10.90;91.30
15099;DHT22;33900;53.640;9.942;2023-02-17T17:06:44;10.90;91.20
15099;DHT22;33900;53.640;9.942;2023-02-17T17:09:17;10.90;91.40
15099;DHT22;33900;53.640;9.942;2023-02-17T17:11:43;10.90;91.60
15099;DHT22;33900;53.640;9.942;2023-02-17T17:14:09;10.90;91.60
15099;DHT22;33900;53.640;9.942;2023-02-17T17:16:35;10.80;91.40
15099;DHT22;33900;53.640;9.942;2023-02-17T17:19:01;10.90;91.30
15099;DHT22;33900;53.640;9.942;2023-02-17T17:21:28;10.80;91.40
15099;DHT22;33900;53.640;9.942;2023-02-17T17:23:53;10.80;91.50
15099;DHT22;33900;53.640;9.942;2023-02-17T17:26:22;10.80;91.00
15099;DHT22;33900;53.640;9.942;2023-02-17T17:28:49;10.80;91.20
15099;DHT22;33900;53.640;9.942;2023-02-17T17:31:15;10.80;91.20
15099;DHT22;33900;53.640;9.942;2023-02-17T17:33:40;10.70;90.70
15099;DHT22;33900;53.640;9.942;2023-02-17T17:36:16;10.70;90.90